Higginsville, MO (64037)

7:25 AM CDT on September 02, 2015 (GMT -0500)
Citizens In Higginsville | | Change Station
CLOSE
Current Station
Personal Weather Station
Location: Higginsville, MO
Elevation: 837 ft
Nearby Weather Stations

Elev 837 ft 39.08 °N, 93.72 °W | Updated 1 minute ago

Clear
Clear
70.4 °F
Feels Like 70.4 °F
N
0.0
Wind Variable Wind from SSE
Gusts 0.0 mph

Today
High -- | Low -- °F
--% Chance of Precip.
Yesterday
High -- | Low -- °F
Precip. -- in
6:44 AM 7:44 PM
Waning Gibbous, 80% visible
Pressure 30.03 in
Visibility 10.0 miles
Clouds Scattered Clouds 11000 ft
Dew Point 68 °F
Humidity 91%
Rainfall 0.00 in
Snow Depth Not available.
UV 0.0 out of 12
Pollen 10.40 out of 12
Air Quality Not available.
Flu Activity Not available.
METAR KSZL 021158Z COR 19005KT 10SM SCT110 21/19 A3004 RMK AO2A SLP168 T02050192 10223 20205 52010 COR 1200
Pressure 30.03 in
Visibility 10.0 miles
Clouds Scattered Clouds 11000 ft
Dew Point 68 °F
Humidity 91%
Rainfall 0.00 in
Snow Depth Not available.
UV 0.0 out of 12
Pollen 10.40 out of 12
Air Quality Not available.
Flu Activity Not available.
METAR KSZL 021158Z COR 19005KT 10SM SCT110 21/19 A3004 RMK AO2A SLP168 T02050192 10223 20205 52010 COR 1200

10-Day Weather Forecast

×

Almanac

Astronomy

Sep. 02, 2015 Rise Set
Actual Time
Civil Twilight
Nautical Twilight
Astronomical Twilight
Moon
Length of Visible Light
Length of Day
Tomorrow will be .
, % of the Moon is Illuminated

Today's Extremes

State Highs State Lows

Community

WunderPhotos

Upload Photos

1,851,738 photos uploaded!

WunderBlogs® & News

Nearby

Air Quality

  Air Quality AQ Index Pollutant
Not available.

Snow Depth

Station Depth Elevation

Earthquake Activity

City Distance Mag. Time & Date
Minimum magnitude displayed is 2.5.

Coastal Water Temperatures

Place Temperature

Stations

Nearby Weather Stations

Station Location Temp. Windchill Dew Point Humidity Wind Precip. Elev Updated Type